createdAt,value
2022-10-19T00:01:14.681Z,10.30
2022-10-19T00:03:43.187Z,10.22
2022-10-19T00:06:15.626Z,10.22
2022-10-19T00:08:42.934Z,10.28
2022-10-19T00:11:10.523Z,10.15
2022-10-19T00:13:37.431Z,10.18
2022-10-19T00:16:11.517Z,10.15
2022-10-19T00:18:39.736Z,10.19
2022-10-19T00:21:08.561Z,10.12
2022-10-19T00:23:35.812Z,10.11
2022-10-19T00:26:03.040Z,10.03
2022-10-19T00:28:30.561Z,10.06
2022-10-19T00:31:06.657Z,10.07
2022-10-19T00:33:33.914Z,10.09
2022-10-19T00:36:01.559Z,10.04
2022-10-19T00:38:28.332Z,9.98
2022-10-19T00:40:55.309Z,10.04
2022-10-19T00:43:24.867Z,10.00
2022-10-19T00:45:52.955Z,9.95
2022-10-19T00:48:31.919Z,9.93
2022-10-19T00:51:00.394Z,9.92
2022-10-19T00:53:30.451Z,9.88
2022-10-19T00:55:59.409Z,9.90
2022-10-19T00:58:26.154Z,9.80
2022-10-19T01:00:53.293Z,9.83
2022-10-19T01:03:21.163Z,9.83
2022-10-19T01:05:48.638Z,9.83
2022-10-19T01:08:15.787Z,9.94
2022-10-19T01:11:03.976Z,9.98
2022-10-19T01:13:54.196Z,10.10
2022-10-19T01:16:42.478Z,10.30
2022-10-19T01:19:44.707Z,10.28
2022-10-19T01:22:36.348Z,10.53
2022-10-19T01:25:37.242Z,10.52
2022-10-19T01:28:34.620Z,10.54
2022-10-19T01:31:18.205Z,10.52
2022-10-19T01:34:14.967Z,10.44
2022-10-19T01:37:02.573Z,10.43
2022-10-19T01:39:51.981Z,10.58
2022-10-19T01:42:52.346Z,10.56
2022-10-19T01:45:25.127Z,10.61
2022-10-19T01:48:02.632Z,10.57
2022-10-19T01:50:44.777Z,10.53
2022-10-19T01:53:14.101Z,10.56
2022-10-19T01:55:44.897Z,10.63
2022-10-19T01:58:17.117Z,10.61
2022-10-19T02:00:46.770Z,10.57
2022-10-19T02:03:14.596Z,10.50
2022-10-19T02:05:45.803Z,10.46
2022-10-19T02:08:18.304Z,10.55
2022-10-19T02:10:46.474Z,10.54
2022-10-19T02:13:16.407Z,10.45
2022-10-19T02:15:47.662Z,10.45
2022-10-19T02:18:19.803Z,10.43
2022-10-19T02:20:47.132Z,10.39
2022-10-19T02:23:19.200Z,10.36
2022-10-19T02:25:46.543Z,10.39
2022-10-19T02:28:13.362Z,10.39
2022-10-19T02:30:40.408Z,10.38
2022-10-19T02:33:07.943Z,10.39
2022-10-19T02:35:35.064Z,10.41
2022-10-19T02:38:04.393Z,10.42
2022-10-19T02:40:36.676Z,10.43
2022-10-19T02:43:07.661Z,10.37
2022-10-19T02:45:44.845Z,10.36
2022-10-19T02:48:18.485Z,10.42
2022-10-19T02:50:47.770Z,10.45
2022-10-19T02:53:16.026Z,10.48
2022-10-19T02:55:43.453Z,10.59
2022-10-19T02:58:10.242Z,10.66
2022-10-19T03:00:37.238Z,10.73
2022-10-19T03:03:04.008Z,10.78
2022-10-19T03:05:31.059Z,10.83
2022-10-19T03:07:57.771Z,10.95
2022-10-19T03:10:24.685Z,10.99
2022-10-19T03:12:51.459Z,10.94
2022-10-19T03:15:19.667Z,10.87
2022-10-19T03:17:46.403Z,10.84
2022-10-19T03:20:13.359Z,10.73
2022-10-19T03:22:40.143Z,10.75
2022-10-19T03:25:07.505Z,10.74
2022-10-19T03:27:34.403Z,10.76
2022-10-19T03:30:01.668Z,10.78
2022-10-19T03:32:28.404Z,10.84
2022-10-19T03:34:55.347Z,10.87
2022-10-19T03:37:22.100Z,10.89
2022-10-19T03:39:49.002Z,10.90
2022-10-19T03:42:15.769Z,10.84
2022-10-19T03:44:42.743Z,10.80
2022-10-19T03:47:09.460Z,10.75
2022-10-19T03:49:38.116Z,10.72
2022-10-19T03:52:07.002Z,10.72
2022-10-19T03:54:33.928Z,10.74
2022-10-19T03:57:00.634Z,10.82
2022-10-19T03:59:27.663Z,10.96
2022-10-19T04:01:54.478Z,11.09
2022-10-19T04:04:21.470Z,11.10
2022-10-19T04:06:50.100Z,11.24
2022-10-19T04:09:19.279Z,11.30
2022-10-19T04:11:46.263Z,11.36
2022-10-19T04:14:22.708Z,11.35
2022-10-19T04:17:01.245Z,11.34
2022-10-19T04:19:28.301Z,11.34
2022-10-19T04:21:55.057Z,11.32
2022-10-19T04:24:22.224Z,11.31
2022-10-19T04:26:55.071Z,11.28
2022-10-19T04:29:26.469Z,11.27
2022-10-19T04:31:56.668Z,11.25
2022-10-19T04:34:24.189Z,11.20
2022-10-19T04:36:51.036Z,11.14
2022-10-19T04:39:17.992Z,11.10
2022-10-19T04:41:44.753Z,11.07
2022-10-19T04:44:11.741Z,10.98
2022-10-19T04:46:38.852Z,10.99
2022-10-19T04:49:06.906Z,10.95
2022-10-19T04:51:34.594Z,10.89
2022-10-19T04:54:04.850Z,10.88
2022-10-19T04:56:32.473Z,10.85
2022-10-19T04:59:00.881Z,11.00
2022-10-19T05:01:29.383Z,11.06
2022-10-19T05:03:59.492Z,11.18
2022-10-19T05:06:26.366Z,11.15
2022-10-19T05:08:53.368Z,11.23
2022-10-19T05:11:20.830Z,11.21
2022-10-19T05:13:48.522Z,11.33
2022-10-19T05:16:18.044Z,11.28
2022-10-19T05:18:56.099Z,11.29
2022-10-19T05:21:22.886Z,11.24
2022-10-19T05:23:54.506Z,11.29
2022-10-19T05:26:23.976Z,11.24
2022-10-19T05:28:57.064Z,11.17
2022-10-19T05:31:26.491Z,11.15
2022-10-19T05:33:53.781Z,11.20
2022-10-19T05:36:25.381Z,11.18
2022-10-19T05:38:54.028Z,11.20
2022-10-19T05:41:22.135Z,11.16
2022-10-19T05:43:53.779Z,11.19
2022-10-19T05:46:20.765Z,11.21
2022-10-19T05:48:48.043Z,11.22
2022-10-19T05:51:18.899Z,11.31
2022-10-19T05:53:46.369Z,11.31
2022-10-19T05:56:18.320Z,11.43
2022-10-19T05:58:46.094Z,11.53
2022-10-19T06:01:14.166Z,11.62
2022-10-19T06:03:41.208Z,11.61
2022-10-19T06:06:09.542Z,11.72
2022-10-19T06:08:37.869Z,11.74
2022-10-19T06:11:20.453Z,11.70
2022-10-19T06:13:50.660Z,11.77
2022-10-19T06:16:19.194Z,11.85
2022-10-19T06:18:46.683Z,12.00
2022-10-19T06:21:15.478Z,11.95
2022-10-19T06:26:15.185Z,11.98
2022-10-19T06:28:43.649Z,12.07
2022-10-19T06:31:11.432Z,12.02
2022-10-19T06:33:40.352Z,12.09
2022-10-19T06:36:16.367Z,12.10
2022-10-19T06:38:43.969Z,12.18
2022-10-19T06:41:11.721Z,12.21
2022-10-19T06:43:39.484Z,12.23
2022-10-19T06:46:11.708Z,12.26
2022-10-19T06:48:38.823Z,12.33
2022-10-19T06:51:09.667Z,12.45
2022-10-19T06:53:37.194Z,12.47
2022-10-19T06:56:05.980Z,12.47
2022-10-19T06:58:37.939Z,12.60
2022-10-19T07:01:07.695Z,12.72
2022-10-19T07:03:35.735Z,12.84
2022-10-19T07:06:05.570Z,12.90
2022-10-19T07:08:34.112Z,13.02
2022-10-19T07:11:03.345Z,13.04
2022-10-19T07:13:31.085Z,13.20
2022-10-19T07:15:59.982Z,13.32
2022-10-19T07:18:27.583Z,13.34
2022-10-19T07:21:05.721Z,13.52
2022-10-19T07:23:34.402Z,13.69
2022-10-19T07:26:12.699Z,13.87
2022-10-19T07:28:41.427Z,14.04
2022-10-19T07:31:11.949Z,14.19
2022-10-19T07:33:39.023Z,14.35
2022-10-19T07:36:08.598Z,15.02
2022-10-19T07:38:36.065Z,14.98
2022-10-19T07:41:08.580Z,14.96
2022-10-19T07:43:36.307Z,15.00
2022-10-19T07:46:06.290Z,15.12
2022-10-19T07:48:34.441Z,15.27
2022-10-19T07:51:02.587Z,15.33
2022-10-19T07:53:29.739Z,15.51
2022-10-19T07:55:56.553Z,15.72
2022-10-19T07:58:23.489Z,15.93
2022-10-19T08:00:50.244Z,15.98
2022-10-19T08:06:06.083Z,16.33
2022-10-19T08:08:33.911Z,16.56
2022-10-19T08:11:08.551Z,16.79
2022-10-19T08:13:35.941Z,16.96
2022-10-19T08:16:02.888Z,17.07
2022-10-19T08:21:02.465Z,17.29
2022-10-19T08:23:29.434Z,17.30
2022-10-19T08:25:59.947Z,17.30
2022-10-19T08:28:26.899Z,17.44
2022-10-19T08:30:58.073Z,17.70
2022-10-19T08:33:26.464Z,17.72
2022-10-19T08:35:54.173Z,17.89
2022-10-19T08:38:21.089Z,17.88
2022-10-19T08:40:47.983Z,18.18
2022-10-19T08:43:30.644Z,18.42
2022-10-19T08:46:10.286Z,18.62
2022-10-19T08:48:39.283Z,18.87
2022-10-19T08:51:09.292Z,18.95
2022-10-19T08:53:39.496Z,19.09
2022-10-19T08:56:49.830Z,18.96
2022-10-19T08:59:59.372Z,19.14
2022-10-19T09:02:54.411Z,19.30
2022-10-19T09:05:28.425Z,19.55
2022-10-19T09:07:55.802Z,19.48
2022-10-19T09:10:28.112Z,19.90
2022-10-19T09:13:05.445Z,20.16
2022-10-19T09:15:41.525Z,19.28
2022-10-19T09:18:12.220Z,19.45
2022-10-19T09:20:43.272Z,19.78
2022-10-19T09:23:40.500Z,19.95
2022-10-19T09:26:19.495Z,20.40
2022-10-19T09:28:58.482Z,20.73
2022-10-19T09:31:34.081Z,20.98
2022-10-19T09:34:07.669Z,21.26
2022-10-19T09:36:57.262Z,21.66
2022-10-19T09:39:28.660Z,21.72
2022-10-19T09:42:07.741Z,21.72
2022-10-19T09:44:34.841Z,21.64
2022-10-19T09:47:33.008Z,21.21
2022-10-19T09:50:15.300Z,21.02
2022-10-19T09:52:44.048Z,20.59
2022-10-19T09:55:19.770Z,20.02
2022-10-19T09:57:49.602Z,19.96
2022-10-19T10:00:25.552Z,19.83
2022-10-19T10:02:54.267Z,19.73
2022-10-19T10:05:32.458Z,19.40
2022-10-19T10:07:59.451Z,19.53
2022-10-19T10:10:38.791Z,19.38
2022-10-19T10:13:06.236Z,19.29
2022-10-19T10:15:43.999Z,19.09
2022-10-19T10:18:15.469Z,19.85
2022-10-19T10:23:27.659Z,21.01
2022-10-19T10:25:58.985Z,20.91
2022-10-19T10:28:28.534Z,20.64
2022-10-19T10:31:19.006Z,21.71
2022-10-19T10:33:54.536Z,21.19
2022-10-19T10:36:24.916Z,21.94
2022-10-19T10:38:54.684Z,22.55
2022-10-19T10:41:23.549Z,22.52
2022-10-19T10:43:59.566Z,22.29
2022-10-19T10:46:42.577Z,22.62
2022-10-19T10:49:21.448Z,22.41
2022-10-19T10:51:55.120Z,22.42
2022-10-19T10:54:23.752Z,22.49
2022-10-19T10:57:05.579Z,22.53
2022-10-19T10:59:56.515Z,23.21
2022-10-19T11:02:52.070Z,23.17
2022-10-19T11:05:24.366Z,22.74
2022-10-19T11:07:58.798Z,23.21
2022-10-19T11:10:33.304Z,23.13
2022-10-19T11:13:15.413Z,22.37
2022-10-19T11:16:03.113Z,22.70
2022-10-19T11:18:50.133Z,22.68
2022-10-19T11:21:19.637Z,23.70
2022-10-19T11:24:11.672Z,22.59
2022-10-19T11:26:41.356Z,22.43
2022-10-19T11:29:14.085Z,22.58
2022-10-19T11:31:48.330Z,22.60
2022-10-19T11:34:47.409Z,22.17
2022-10-19T11:37:28.969Z,21.84
2022-10-19T11:40:11.941Z,21.70
2022-10-19T11:42:57.253Z,21.65
2022-10-19T11:45:53.967Z,21.48
2022-10-19T11:48:52.959Z,21.86
2022-10-19T11:51:33.552Z,22.36
2022-10-19T11:54:14.572Z,21.57
2022-10-19T11:57:13.823Z,21.35
2022-10-19T11:59:52.608Z,20.95
2022-10-19T12:02:49.965Z,20.91
2022-10-19T12:05:21.873Z,19.92
2022-10-19T12:08:09.801Z,19.92
2022-10-19T12:10:57.512Z,19.63
2022-10-19T12:13:40.629Z,19.31
2022-10-19T12:16:11.012Z,19.23
2022-10-19T12:18:47.574Z,19.22
2022-10-19T12:21:24.968Z,19.07
2022-10-19T12:23:52.367Z,18.76
2022-10-19T12:26:22.290Z,18.83
2022-10-19T12:29:12.192Z,19.02
2022-10-19T12:31:39.789Z,18.93
2022-10-19T12:34:25.539Z,18.76
2022-10-19T12:37:23.801Z,18.60
2022-10-19T12:39:53.251Z,18.49
2022-10-19T12:42:33.241Z,18.50
2022-10-19T12:45:25.200Z,18.51
2022-10-19T12:48:19.069Z,18.48
2022-10-19T12:50:48.832Z,18.47
2022-10-19T12:53:41.065Z,18.55
2022-10-19T12:56:26.743Z,18.57
2022-10-19T12:59:01.437Z,18.50
2022-10-19T13:01:43.985Z,18.43
2022-10-19T13:04:15.285Z,18.37
2022-10-19T13:06:49.343Z,18.44
2022-10-19T13:09:41.991Z,18.45
2022-10-19T13:12:17.957Z,18.40
2022-10-19T13:14:57.287Z,18.42
2022-10-19T13:17:49.034Z,18.45
2022-10-19T13:20:16.218Z,18.38
2022-10-19T13:23:01.568Z,18.34
2022-10-19T13:25:30.746Z,18.39
2022-10-19T13:27:57.456Z,18.25
2022-10-19T13:30:36.434Z,18.33
2022-10-19T13:33:27.997Z,18.40
2022-10-19T13:36:00.999Z,18.20
2022-10-19T13:38:38.048Z,18.19
2022-10-19T13:41:18.250Z,18.25
2022-10-19T13:44:12.010Z,18.26
2022-10-19T13:46:38.899Z,18.18
2022-10-19T13:49:32.533Z,18.15
2022-10-19T13:52:17.969Z,18.08
2022-10-19T13:55:35.899Z,18.15
2022-10-19T13:58:33.707Z,18.17
2022-10-19T14:01:18.924Z,18.17
2022-10-19T14:04:12.403Z,18.12
2022-10-19T14:06:47.496Z,18.02
2022-10-19T14:09:35.632Z,17.79
2022-10-19T14:12:09.009Z,17.69
2022-10-19T14:17:20.819Z,17.65
2022-10-19T14:19:51.972Z,17.72
2022-10-19T14:22:33.502Z,17.53
2022-10-19T14:25:17.030Z,17.49
2022-10-19T14:27:45.351Z,17.65
2022-10-19T14:30:27.556Z,17.60
2022-10-19T14:32:58.151Z,17.44
2022-10-19T14:35:31.907Z,17.50
2022-10-19T14:38:00.189Z,17.54
2022-10-19T14:40:30.964Z,17.34
2022-10-19T14:42:59.639Z,17.30
2022-10-19T14:45:31.963Z,17.22
2022-10-19T14:48:17.514Z,17.14
2022-10-19T14:50:55.637Z,17.03
2022-10-19T14:54:03.903Z,16.98
2022-10-19T14:56:41.152Z,16.89
2022-10-19T14:59:19.557Z,16.84
2022-10-19T15:01:52.498Z,16.77
2022-10-19T15:04:27.239Z,16.64
2022-10-19T15:06:55.463Z,16.55
2022-10-19T15:09:36.972Z,16.45
2022-10-19T15:12:17.954Z,16.33
2022-10-19T15:14:46.124Z,16.27
2022-10-19T15:17:31.886Z,16.23
2022-10-19T15:20:01.380Z,16.13
2022-10-19T15:22:31.644Z,16.02
2022-10-19T15:24:58.592Z,15.93
2022-10-19T15:27:37.070Z,15.89
2022-10-19T15:30:22.534Z,15.76
2022-10-19T15:32:54.799Z,15.82
2022-10-19T15:35:32.158Z,15.63
2022-10-19T15:38:10.131Z,15.60
2022-10-19T15:40:39.866Z,15.55
2022-10-19T15:43:34.689Z,15.46
2022-10-19T15:46:13.465Z,15.36
2022-10-19T15:48:40.340Z,15.36
2022-10-19T15:51:27.272Z,15.30
2022-10-19T15:54:07.525Z,15.31
2022-10-19T15:56:38.837Z,15.22
2022-10-19T15:59:12.013Z,15.24
2022-10-19T16:01:39.231Z,15.28
2022-10-19T16:04:06.303Z,15.19
2022-10-19T16:06:34.689Z,15.00
2022-10-19T16:09:02.512Z,14.91
2022-10-19T16:11:31.515Z,14.87
2022-10-19T16:13:58.487Z,14.89
2022-10-19T16:16:31.615Z,14.80
2022-10-19T16:18:59.581Z,14.81
2022-10-19T16:21:30.463Z,14.80
2022-10-19T16:23:57.853Z,14.82
2022-10-19T16:26:26.228Z,14.68
2022-10-19T16:28:54.563Z,14.57
2022-10-19T16:31:21.838Z,14.47
2022-10-19T16:33:48.773Z,14.40
2022-10-19T16:36:18.342Z,14.42
2022-10-19T16:38:45.253Z,14.39
2022-10-19T16:41:13.719Z,14.30
2022-10-19T16:43:40.759Z,14.18
2022-10-19T16:46:07.972Z,14.17
2022-10-19T16:48:35.112Z,14.17
2022-10-19T16:51:08.124Z,14.10
2022-10-19T16:53:35.371Z,14.07
2022-10-19T16:56:09.897Z,14.12
2022-10-19T16:58:37.358Z,14.05
2022-10-19T17:01:18.062Z,13.95
2022-10-19T17:03:49.148Z,13.97
2022-10-19T17:06:17.299Z,13.92
2022-10-19T17:09:23.256Z,13.91
2022-10-19T17:11:34.084Z,13.84
2022-10-19T17:14:03.895Z,13.81
2022-10-19T17:16:33.141Z,13.78
2022-10-19T17:19:01.957Z,13.67
2022-10-19T17:21:32.327Z,13.56
2022-10-19T17:24:02.157Z,13.51
2022-10-19T17:26:35.445Z,13.49
2022-10-19T17:29:03.377Z,13.47
2022-10-19T17:31:30.572Z,13.44
2022-10-19T17:33:58.091Z,13.48
2022-10-19T17:36:28.219Z,13.38
2022-10-19T17:38:57.544Z,13.35
2022-10-19T17:41:25.518Z,13.33
2022-10-19T17:43:53.072Z,13.27
2022-10-19T17:46:23.878Z,13.24
2022-10-19T17:48:51.340Z,13.18
2022-10-19T17:51:27.410Z,13.11
2022-10-19T17:53:57.255Z,13.10
2022-10-19T17:56:24.823Z,13.07
2022-10-19T17:58:51.923Z,13.03
2022-10-19T18:01:20.914Z,12.98
2022-10-19T18:03:48.496Z,12.92
2022-10-19T18:06:21.928Z,12.89
2022-10-19T18:08:52.073Z,12.85
2022-10-19T18:11:24.864Z,12.74
2022-10-19T18:13:54.279Z,12.70
2022-10-19T18:16:30.074Z,12.61
2022-10-19T18:18:58.800Z,12.56
2022-10-19T18:21:31.420Z,12.51
2022-10-19T18:24:00.452Z,12.41
2022-10-19T18:26:30.322Z,12.39
2022-10-19T18:28:58.327Z,12.39
2022-10-19T18:31:30.623Z,12.36
2022-10-19T18:34:02.916Z,12.24
2022-10-19T18:36:30.672Z,12.23
2022-10-19T18:39:02.913Z,12.20
2022-10-19T18:41:30.387Z,12.24
2022-10-19T18:44:03.143Z,12.12
2022-10-19T18:46:33.885Z,12.04
2022-10-19T18:49:01.578Z,12.11
2022-10-19T18:51:28.970Z,12.01
2022-10-19T18:53:56.037Z,11.94
2022-10-19T18:56:23.192Z,11.92
2022-10-19T18:58:50.473Z,11.87
2022-10-19T19:01:24.088Z,11.87
2022-10-19T19:03:53.548Z,11.81
2022-10-19T19:06:22.725Z,11.70
2022-10-19T19:08:49.713Z,11.62
2022-10-19T19:11:29.652Z,11.55
2022-10-19T19:14:06.105Z,11.54
2022-10-19T19:16:35.662Z,11.36
2022-10-19T19:19:03.076Z,11.39
2022-10-19T19:21:31.660Z,11.33
2022-10-19T19:24:00.862Z,11.36
2022-10-19T19:26:30.863Z,11.28
2022-10-19T19:28:58.361Z,11.20
2022-10-19T19:31:25.580Z,11.28
2022-10-19T19:33:52.632Z,11.23
2022-10-19T19:36:20.372Z,11.20
2022-10-19T19:38:49.019Z,11.16
2022-10-19T19:41:16.440Z,11.07
2022-10-19T19:43:43.869Z,11.04
2022-10-19T19:46:16.706Z,10.98
2022-10-19T19:48:45.902Z,10.93
2022-10-19T19:51:16.028Z,10.87
2022-10-19T19:53:43.444Z,10.80
2022-10-19T19:56:12.256Z,10.84
2022-10-19T19:58:40.118Z,10.82
2022-10-19T20:01:16.545Z,10.78
2022-10-19T20:03:44.095Z,10.83
2022-10-19T20:06:10.999Z,10.77
2022-10-19T20:08:38.611Z,10.72
2022-10-19T20:11:08.882Z,10.69
2022-10-19T20:13:36.807Z,10.67
2022-10-19T20:16:08.646Z,10.68
2022-10-19T20:18:35.956Z,10.59
2022-10-19T20:21:03.968Z,10.55
2022-10-19T20:23:32.495Z,10.52
2022-10-19T20:25:59.250Z,10.46
2022-10-19T20:28:26.815Z,10.40
2022-10-19T20:31:01.749Z,10.34
2022-10-19T20:33:32.240Z,10.41
2022-10-19T20:36:06.514Z,10.39
2022-10-19T20:38:34.724Z,10.31
2022-10-19T20:41:09.905Z,10.28
2022-10-19T20:43:37.768Z,10.29
2022-10-19T20:46:13.210Z,10.25
2022-10-19T20:48:40.491Z,10.22
2022-10-19T20:51:18.961Z,10.20
2022-10-19T20:53:50.626Z,10.15
2022-10-19T20:56:21.661Z,10.20
2022-10-19T20:58:54.637Z,10.16
2022-10-19T21:01:21.966Z,10.13
2022-10-19T21:03:57.291Z,10.03
2022-10-19T21:06:28.848Z,9.97
2022-10-19T21:08:56.252Z,9.96
2022-10-19T21:11:28.969Z,9.94
2022-10-19T21:13:58.843Z,9.94
2022-10-19T21:16:27.561Z,9.86
2022-10-19T21:18:55.006Z,9.95
2022-10-19T21:21:24.961Z,9.91
2022-10-19T21:23:55.375Z,9.97
2022-10-19T21:26:25.113Z,9.87
2022-10-19T21:28:55.069Z,9.78
2022-10-19T21:31:23.403Z,9.72
2022-10-19T21:33:53.661Z,9.63
2022-10-19T21:36:21.797Z,9.67
2022-10-19T21:38:48.743Z,9.65
2022-10-19T21:41:20.803Z,9.72
2022-10-19T21:43:51.043Z,9.72
2022-10-19T21:46:19.752Z,9.54
2022-10-19T21:48:47.156Z,9.37
2022-10-19T21:51:16.806Z,9.30
2022-10-19T21:53:44.088Z,9.17
2022-10-19T21:56:10.868Z,9.11
2022-10-19T21:58:37.885Z,9.20
2022-10-19T22:01:08.599Z,9.21
2022-10-19T22:03:35.553Z,9.14
2022-10-19T22:06:02.353Z,9.14
2022-10-19T22:08:29.432Z,9.20
2022-10-19T22:10:56.504Z,9.15
2022-10-19T22:13:23.517Z,9.12
2022-10-19T22:15:50.221Z,9.17
2022-10-19T22:18:17.204Z,9.17
2022-10-19T22:20:44.036Z,9.11
2022-10-19T22:23:10.962Z,9.02
2022-10-19T22:25:37.731Z,8.99
2022-10-19T22:28:04.683Z,8.94
2022-10-19T22:30:31.437Z,8.96
2022-10-19T22:32:58.403Z,8.93
2022-10-19T22:35:25.150Z,8.88
2022-10-19T22:37:52.111Z,8.88
2022-10-19T22:40:18.873Z,8.84
2022-10-19T22:42:58.033Z,8.82
2022-10-19T22:45:24.799Z,8.88
2022-10-19T22:47:51.743Z,8.80
2022-10-19T22:50:18.500Z,8.69
2022-10-19T22:52:45.448Z,8.64
2022-10-19T22:55:12.288Z,8.62
2022-10-19T22:57:39.301Z,8.60
2022-10-19T23:00:06.700Z,8.59
2022-10-19T23:02:34.012Z,8.66
2022-10-19T23:05:01.026Z,8.60
2022-10-19T23:07:28.007Z,8.57
2022-10-19T23:09:54.826Z,8.54
2022-10-19T23:12:22.020Z,8.58
2022-10-19T23:14:48.754Z,8.64
2022-10-19T23:17:15.697Z,8.43
2022-10-19T23:19:42.526Z,8.33
2022-10-19T23:22:09.571Z,8.37
2022-10-19T23:24:36.315Z,8.38
2022-10-19T23:27:03.775Z,8.27
2022-10-19T23:29:30.628Z,8.27
2022-10-19T23:31:57.606Z,8.25
2022-10-19T23:34:24.421Z,8.27
2022-10-19T23:36:51.446Z,8.24
2022-10-19T23:39:18.321Z,8.25
2022-10-19T23:41:45.249Z,8.25
2022-10-19T23:44:12.141Z,8.28
2022-10-19T23:46:39.048Z,8.36
2022-10-19T23:49:05.846Z,8.23
2022-10-19T23:51:32.780Z,8.19
2022-10-19T23:53:59.508Z,8.10
2022-10-19T23:56:28.470Z,8.10
2022-10-19T23:58:56.173Z,8.15
